Time;durP1;ratioP1;P1;durP2;ratioP2;P2;SDS_P1;SDS_P2;PMS_P1;PMS_P2;Temp;Humidity;BMP_temperature;BMP_pressure;BME280_temperature;BME280_humidity;BME280_pressure;Samples;Min_cycle;Max_cycle;Signal;HPM_P1;HPM_P2
2022/08/01 00:00:51;;;;;;;7.93;4.30;;;16.50;99.90;;;;;;5095450;28;20354;-71
2022/08/01 00:03:41;;;;;;;7.53;4.00;;;16.40;99.90;;;;;;5108634;27;20223;-71
2022/08/01 00:06:30;;;;;;;9.10;4.65;;;16.30;99.90;;;;;;5098249;27;20261;-70
2022/08/01 00:09:19;;;;;;;5.97;3.75;;;16.40;99.90;;;;;;5102505;27;20599;-73
2022/08/01 00:12:12;;;;;;;5.80;3.47;;;16.40;99.90;;;;;;5101935;27;20218;-73
2022/08/01 00:15:01;;;;;;;4.32;3.50;;;16.30;99.90;;;;;;5115793;27;20215;-72
2022/08/01 00:17:50;;;;;;;7.00;3.40;;;16.30;99.90;;;;;;5098985;27;20229;-71
2022/08/01 00:20:39;;;;;;;8.10;4.00;;;16.30;99.90;;;;;;5096153;27;20226;-72
2022/08/01 00:23:28;;;;;;;4.55;3.80;;;16.40;99.90;;;;;;5099123;27;20219;-71
2022/08/01 00:26:17;;;;;;;4.95;3.55;;;16.40;99.90;;;;;;5091840;27;20219;-72
2022/08/01 00:29:05;;;;;;;6.20;3.45;;;16.40;99.90;;;;;;5100175;27;20230;-70
2022/08/01 00:32:14;;;;;;;5.68;4.13;;;16.40;99.90;;;;;;5104442;28;20230;-70
2022/08/01 00:35:02;;;;;;;6.32;3.95;;;16.30;99.90;;;;;;5098137;27;20274;-69
2022/08/01 00:37:52;;;;;;;7.15;3.90;;;16.30;99.90;;;;;;5092809;27;20223;-70
2022/08/01 00:40:41;;;;;;;5.70;4.10;;;16.30;99.90;;;;;;5104545;27;20227;-71
2022/08/01 00:43:29;;;;;;;4.95;3.53;;;16.30;99.90;;;;;;5095085;28;20215;-72
2022/08/01 00:46:18;;;;;;;9.15;3.83;;;16.40;99.90;;;;;;5095975;27;20250;-72
2022/08/01 00:49:07;;;;;;;6.93;4.00;;;16.30;99.90;;;;;;5094821;27;20227;-70
2022/08/01 00:51:59;;;;;;;7.38;3.53;;;16.30;99.90;;;;;;5100203;27;20231;-71
2022/08/01 00:54:49;;;;;;;6.65;3.97;;;16.30;99.90;;;;;;5097144;27;20226;-69
2022/08/01 00:57:38;;;;;;;4.93;3.65;;;16.30;99.90;;;;;;5098651;27;20270;-71
2022/08/01 01:00:46;;;;;;;9.52;3.90;;;16.20;99.90;;;;;;5098839;27;20226;-70
2022/08/01 01:03:41;;;;;;;6.85;3.67;;;16.20;99.90;;;;;;5096312;27;20234;-71
2022/08/01 01:06:55;;;;;;;8.23;3.90;;;16.10;99.90;;;;;;5096391;27;20230;-71
2022/08/01 01:09:50;;;;;;;9.20;4.25;;;16.20;99.90;;;;;;5096224;28;20231;-70
2022/08/01 01:12:51;;;;;;;6.68;3.50;;;16.20;99.90;;;;;;5094443;28;20233;-71
2022/08/01 01:15:45;;;;;;;9.05;3.80;;;16.20;99.90;;;;;;5095406;28;20214;-71
2022/08/01 01:18:38;;;;;;;6.32;4.25;;;16.20;99.90;;;;;;5097765;27;20222;-71
2022/08/01 01:21:56;;;;;;;5.03;3.70;;;16.20;99.90;;;;;;5094002;28;20227;-70
2022/08/01 01:24:56;;;;;;;8.48;3.90;;;16.10;99.90;;;;;;5093882;27;20722;-71
2022/08/01 01:27:51;;;;;;;12.48;4.43;;;16.10;99.90;;;;;;5096516;28;20224;-70
2022/08/01 01:30:46;;;;;;;8.63;4.00;;;16.10;99.90;;;;;;5094366;28;20218;-70
2022/08/01 01:33:37;;;;;;;8.93;4.30;;;16.10;99.90;;;;;;5110203;27;20234;-69
2022/08/01 01:36:49;;;;;;;7.22;4.13;;;16.10;99.90;;;;;;5095853;27;20227;-69
2022/08/01 01:39:39;;;;;;;7.95;4.30;;;16.10;99.90;;;;;;5094943;28;20227;-70
2022/08/01 01:42:34;;;;;;;7.22;4.90;;;16.10;99.90;;;;;;5096894;28;20243;-69
2022/08/01 01:45:24;;;;;;;7.20;4.10;;;16.00;99.90;;;;;;5097298;28;20226;-71
2022/08/01 01:48:17;;;;;;;8.32;3.95;;;16.00;99.90;;;;;;5093320;28;20243;-69
2022/08/01 01:51:06;;;;;;;7.55;3.78;;;15.90;99.90;;;;;;5095949;28;20226;-70
2022/08/01 01:53:57;;;;;;;7.43;4.13;;;15.90;99.90;;;;;;5108657;27;20730;-70
2022/08/01 01:56:49;;;;;;;7.72;3.60;;;15.90;99.90;;;;;;5095456;28;20357;-71
2022/08/01 01:59:40;;;;;;;9.27;4.00;;;15.80;99.90;;;;;;5095069;28;20226;-69
2022/08/01 02:02:29;;;;;;;8.02;4.60;;;15.80;99.90;;;;;;5098857;27;20451;-70
2022/08/01 02:05:20;;;;;;;6.95;3.58;;;15.70;99.90;;;;;;5098131;27;20234;-71
2022/08/01 02:08:10;;;;;;;9.60;4.63;;;15.70;99.90;;;;;;5097111;27;20211;-71
2022/08/01 02:14:08;;;;;;;7.07;4.10;;;15.60;99.90;;;;;;5099242;27;20409;-71
2022/08/01 02:17:00;;;;;;;5.07;3.90;;;15.60;99.90;;;;;;5110016;27;20343;-71
2022/08/01 02:19:50;;;;;;;5.90;3.70;;;15.60;99.90;;;;;;5100675;28;20223;-70
2022/08/01 02:22:44;;;;;;;7.53;4.03;;;15.50;99.90;;;;;;5099297;27;20538;-70
2022/08/01 02:25:37;;;;;;;13.38;4.32;;;15.50;99.90;;;;;;5095730;27;20219;-70
2022/08/01 02:28:50;;;;;;;7.30;3.80;;;15.50;99.90;;;;;;5102240;27;20226;-71
2022/08/01 02:31:44;;;;;;;8.35;3.88;;;15.40;99.90;;;;;;5114468;27;20309;-71
2022/08/01 02:34:35;;;;;;;9.82;4.20;;;15.40;99.90;;;;;;5096720;27;20707;-71
2022/08/01 02:37:27;;;;;;;5.35;3.95;;;15.40;99.90;;;;;;5101492;27;20224;-70
2022/08/01 02:40:18;;;;;;;5.85;4.10;;;15.30;99.90;;;;;;5104093;27;20718;-69
2022/08/01 02:43:10;;;;;;;6.38;4.70;;;15.30;99.90;;;;;;5098810;27;20215;-70
2022/08/01 02:46:02;;;;;;;8.35;4.20;;;15.30;99.90;;;;;;5096787;27;20223;-68
2022/08/01 02:48:53;;;;;;;8.80;4.20;;;15.20;99.90;;;;;;5120545;27;20219;-72
2022/08/01 02:51:43;;;;;;;10.95;4.55;;;15.20;99.90;;;;;;5097423;28;20278;-72
2022/08/01 02:54:33;;;;;;;8.80;4.55;;;15.10;99.90;;;;;;5098124;28;20237;-72
2022/08/01 02:57:25;;;;;;;12.88;5.00;;;15.10;99.90;;;;;;5095201;27;20227;-73
2022/08/01 03:00:35;;;;;;;6.88;4.40;;;15.10;99.90;;;;;;5098928;27;20219;-73
2022/08/01 03:03:24;;;;;;;7.95;4.90;;;15.00;99.90;;;;;;5100897;27;20351;-73
2022/08/01 03:06:14;;;;;;;6.50;4.85;;;15.00;99.90;;;;;;5100992;27;20604;-71
2022/08/01 03:09:04;;;;;;;12.50;4.53;;;15.00;99.90;;;;;;5098633;27;20214;-72
2022/08/01 03:11:56;;;;;;;6.07;4.47;;;15.00;99.90;;;;;;5100325;27;20244;-72
2022/08/01 03:14:48;;;;;;;8.13;5.53;;;14.90;99.90;;;;;;5118023;27;20227;-71
2022/08/01 03:17:41;;;;;;;10.50;5.13;;;14.90;99.90;;;;;;5107726;27;20290;-71
2022/08/01 03:20:32;;;;;;;10.20;5.60;;;14.90;99.90;;;;;;5098606;27;20259;-71
2022/08/01 03:23:23;;;;;;;11.52;5.53;;;14.90;99.90;;;;;;5096302;27;20230;-70
2022/08/01 03:26:28;;;;;;;9.02;4.88;;;14.90;99.90;;;;;;5099355;27;20220;-71
2022/08/01 03:29:19;;;;;;;12.80;4.68;;;14.90;99.90;;;;;;5099146;27;20218;-72
2022/08/01 03:32:12;;;;;;;9.77;5.28;;;14.90;99.90;;;;;;5100013;28;20223;-70
2022/08/01 03:35:00;;;;;;;10.32;5.25;;;14.90;99.90;;;;;;5096083;27;20587;-71
2022/08/01 03:37:53;;;;;;;6.93;5.20;;;14.90;99.90;;;;;;5102209;27;20226;-71
2022/08/01 03:41:09;;;;;;;10.07;5.22;;;14.90;99.90;;;;;;5102617;28;20226;-71
2022/08/01 03:44:05;;;;;;;10.18;5.57;;;14.90;99.90;;;;;;5095581;27;20221;-71
2022/08/01 03:46:59;;;;;;;11.88;6.10;;;14.90;99.90;;;;;;5098898;28;20222;-70
2022/08/01 03:49:52;;;;;;;9.82;6.18;;;15.00;99.90;;;;;;5094430;27;20843;-71
2022/08/01 03:52:44;;;;;;;12.63;6.07;;;15.10;99.90;;;;;;5112161;27;20219;-71
2022/08/01 03:55:34;;;;;;;9.10;6.20;;;15.10;99.90;;;;;;5097640;27;20218;-72
2022/08/01 03:58:24;;;;;;;10.73;6.45;;;15.10;99.90;;;;;;5096214;27;20218;-71
2022/08/01 04:01:13;;;;;;;12.68;6.53;;;15.20;99.90;;;;;;5097249;27;20226;-70
2022/08/01 04:04:05;;;;;;;9.70;6.57;;;15.20;99.90;;;;;;5096830;27;20231;-71
2022/08/01 04:06:55;;;;;;;8.07;6.97;;;15.10;99.90;;;;;;5096356;28;20920;-69
2022/08/01 04:09:43;;;;;;;8.55;6.93;;;15.20;99.90;;;;;;5098948;27;20233;-69
2022/08/01 04:12:33;;;;;;;10.63;7.53;;;15.20;99.90;;;;;;5084157;27;20710;-70
2022/08/01 04:15:22;;;;;;;12.50;6.95;;;15.30;99.90;;;;;;5095913;27;20227;-71
2022/08/01 04:18:10;;;;;;;11.25;6.47;;;15.50;99.90;;;;;;5090446;27;20214;-70
2022/08/01 04:20:59;;;;;;;11.10;6.40;;;15.50;99.90;;;;;;5086947;28;20223;-70
2022/08/01 04:23:52;;;;;;;9.15;6.22;;;15.60;99.90;;;;;;5102046;27;20226;-71
2022/08/01 04:26:42;;;;;;;12.30;6.43;;;15.70;99.90;;;;;;5096785;27;20720;-70
2022/08/01 04:29:32;;;;;;;11.45;6.03;;;15.70;99.90;;;;;;5084982;28;20271;-70
2022/08/01 04:32:22;;;;;;;10.25;5.80;;;15.70;99.90;;;;;;5096029;27;20226;-70
2022/08/01 04:35:16;;;;;;;12.90;5.90;;;15.70;99.90;;;;;;5087222;28;20211;-70
2022/08/01 04:38:27;;;;;;;9.52;5.93;;;15.80;99.90;;;;;;5099761;27;20219;-76
2022/08/01 04:41:19;;;;;;;11.85;6.03;;;15.80;99.90;;;;;;5083733;28;20249;-71
2022/08/01 04:44:09;;;;;;;10.30;5.78;;;15.90;99.90;;;;;;5087069;28;20258;-72
2022/08/01 04:46:57;;;;;;;10.60;5.88;;;15.90;99.90;;;;;;5102165;27;20591;-71
2022/08/01 04:49:47;;;;;;;12.48;5.63;;;15.90;99.90;;;;;;5084808;28;20222;-70
2022/08/01 04:52:37;;;;;;;6.25;5.57;;;16.00;99.90;;;;;;5092405;27;20485;-71
2022/08/01 04:55:27;;;;;;;12.80;6.13;;;16.00;99.90;;;;;;5097913;27;20227;-70
2022/08/01 04:58:18;;;;;;;7.57;6.20;;;16.10;99.90;;;;;;5094829;27;20225;-70
2022/08/01 05:01:06;;;;;;;8.20;5.53;;;16.20;99.90;;;;;;5097196;27;20230;-71
2022/08/01 05:03:55;;;;;;;8.00;5.75;;;16.10;99.90;;;;;;5086997;27;20227;-69
2022/08/01 05:06:43;;;;;;;8.02;5.78;;;16.10;99.90;;;;;;5097947;27;20226;-72
2022/08/01 05:09:33;;;;;;;9.93;5.72;;;16.10;99.90;;;;;;5096185;27;20241;-71
2022/08/01 05:12:21;;;;;;;5.68;4.95;;;16.10;99.90;;;;;;5095584;28;20226;-71
2022/08/01 05:15:11;;;;;;;9.38;5.68;;;16.00;99.90;;;;;;5093350;28;20226;-70
2022/08/01 05:18:03;;;;;;;9.93;5.88;;;15.80;99.90;;;;;;5101045;28;20226;-69
2022/08/01 05:20:51;;;;;;;10.82;6.47;;;15.80;99.90;;;;;;5109980;27;20215;-71
2022/08/01 05:23:40;;;;;;;20.65;6.47;;;15.70;99.90;;;;;;5119929;27;20714;-72
2022/08/01 05:26:30;;;;;;;10.52;6.82;;;15.70;99.90;;;;;;5103752;27;20250;-71
2022/08/01 05:29:19;;;;;;;20.48;6.80;;;15.70;99.90;;;;;;5097328;28;20222;-72
2022/08/01 05:32:10;;;;;;;6.63;6.00;;;15.60;99.90;;;;;;5092064;28;20223;-71
2022/08/01 05:34:59;;;;;;;9.55;6.03;;;15.60;99.90;;;;;;5103253;27;20227;-71
2022/08/01 05:37:47;;;;;;;8.75;6.35;;;15.80;99.90;;;;;;5090672;28;20263;-72
2022/08/01 05:40:36;;;;;;;9.07;5.45;;;16.20;99.90;;;;;;5095532;28;20219;-71
2022/08/01 05:43:25;;;;;;;11.38;5.63;;;16.50;99.90;;;;;;5091811;28;20253;-71
2022/08/01 05:46:16;;;;;;;6.53;5.45;;;16.70;99.90;;;;;;5097650;27;20778;-72
2022/08/01 05:49:07;;;;;;;11.55;5.70;;;16.80;99.90;;;;;;5095682;28;20223;-72
2022/08/01 05:51:55;;;;;;;7.72;5.68;;;16.90;99.90;;;;;;5097373;28;20274;-72
2022/08/01 05:54:44;;;;;;;5.95;4.28;;;17.00;99.90;;;;;;5091951;28;20215;-70
2022/08/01 05:57:33;;;;;;;12.70;5.07;;;17.20;99.90;;;;;;5097772;28;20215;-73
2022/08/01 06:00:22;;;;;;;5.80;4.28;;;17.30;99.90;;;;;;5095843;28;20247;-71
2022/08/01 06:03:11;;;;;;;9.18;5.43;;;17.50;99.90;;;;;;5096043;28;20215;-71
2022/08/01 06:06:01;;;;;;;6.78;4.00;;;18.00;99.90;;;;;;5093487;28;20218;-73
2022/08/01 06:08:52;;;;;;;8.77;4.32;;;20.00;99.90;;;;;;5094608;28;20237;-74
2022/08/01 06:11:41;;;;;;;4.68;3.70;;;19.60;99.90;;;;;;5094230;28;20253;-73
2022/08/01 06:14:29;;;;;;;9.85;3.92;;;20.30;99.90;;;;;;5094752;28;20223;-75
2022/08/01 06:17:18;;;;;;;5.20;3.75;;;20.80;99.90;;;;;;5094012;28;20253;-75
2022/08/01 06:20:08;;;;;;;5.55;3.42;;;21.60;99.90;;;;;;5124471;27;21195;-74
2022/08/01 06:22:58;;;;;;;7.18;3.92;;;20.10;99.90;;;;;;5100493;27;20215;-73
2022/08/01 06:25:48;;;;;;;6.65;3.47;;;19.50;99.90;;;;;;5114592;27;20598;-73
2022/08/01 06:28:39;;;;;;;6.60;3.88;;;19.30;99.90;;;;;;5096173;28;20744;-73
2022/08/01 06:31:28;;;;;;;4.30;3.90;;;19.00;99.90;;;;;;5094531;28;20227;-73
2022/08/01 06:34:22;;;;;;;5.35;3.78;;;18.90;99.90;;;;;;5099608;27;20226;-73
2022/08/01 06:37:12;;;;;;;6.93;4.40;;;18.80;99.90;;;;;;5092902;28;20236;-74
2022/08/01 06:40:03;;;;;;;8.50;4.18;;;19.00;99.90;;;;;;5091371;28;20306;-75
2022/08/01 06:42:52;;;;;;;6.97;4.47;;;19.50;99.90;;;;;;5092445;28;20226;-74
2022/08/01 06:45:41;;;;;;;6.80;4.20;;;19.40;99.90;;;;;;5102954;27;20317;-73
2022/08/01 06:48:29;;;;;;;8.88;4.22;;;19.10;99.90;;;;;;5099008;28;20463;-73
2022/08/01 06:51:20;;;;;;;7.55;3.10;;;19.10;99.90;;;;;;5093724;27;20245;-73
2022/08/01 06:54:09;;;;;;;5.32;3.45;;;19.10;99.90;;;;;;5096872;27;20241;-73
2022/08/01 06:57:05;;;;;;;8.60;5.85;;;19.20;99.90;;;;;;5095610;27;20216;-74
2022/08/01 06:59:54;;;;;;;4.65;3.83;;;19.20;99.90;;;;;;5095023;27;20338;-72
2022/08/01 07:02:43;;;;;;;5.13;2.70;;;19.20;99.90;;;;;;5095324;27;20238;-75
2022/08/01 07:05:32;;;;;;;10.27;2.50;;;19.40;99.90;;;;;;5098674;27;20219;-74
2022/08/01 07:08:22;;;;;;;6.65;2.30;;;19.50;99.90;;;;;;5098713;27;20211;-75
2022/08/01 07:11:11;;;;;;;10.07;2.47;;;19.60;99.90;;;;;;5092996;27;20985;-74
2022/08/01 07:14:01;;;;;;;5.47;2.90;;;19.70;99.90;;;;;;5093840;27;20775;-75
2022/08/01 07:16:50;;;;;;;6.60;2.38;;;19.80;99.90;;;;;;5098669;27;20692;-74
2022/08/01 07:19:39;;;;;;;4.80;2.72;;;20.00;99.90;;;;;;5097826;28;20222;-74
2022/08/01 07:22:29;;;;;;;5.88;3.13;;;20.30;99.90;;;;;;5101813;27;20243;-76
2022/08/01 07:25:18;;;;;;;4.13;2.05;;;20.50;99.90;;;;;;5094666;28;20741;-75
2022/08/01 07:28:11;;;;;;;3.95;2.10;;;20.50;99.90;;;;;;5097388;27;20223;-75
2022/08/01 07:31:01;;;;;;;3.70;2.00;;;20.70;99.90;;;;;;5109222;27;20225;-74
2022/08/01 07:33:49;;;;;;;4.28;2.75;;;21.00;99.90;;;;;;5097014;27;20777;-74
2022/08/01 07:36:38;;;;;;;4.57;2.90;;;21.20;99.90;;;;;;5098770;28;20227;-75
2022/08/01 07:39:26;;;;;;;4.35;3.00;;;21.40;99.90;;;;;;5092507;28;20223;-74
2022/08/01 07:42:15;;;;;;;10.15;3.30;;;21.50;99.90;;;;;;5095545;27;20287;-74
2022/08/01 07:45:05;;;;;;;4.80;4.00;;;21.90;99.90;;;;;;5095018;27;20219;-73
2022/08/01 07:47:55;;;;;;;6.20;3.88;;;22.10;99.90;;;;;;5096134;27;20640;-73
2022/08/01 07:50:43;;;;;;;7.55;4.32;;;22.30;99.90;;;;;;5097332;27;20231;-74
2022/08/01 07:53:32;;;;;;;6.80;3.30;;;22.50;99.90;;;;;;5095533;27;20753;-74
2022/08/01 07:56:23;;;;;;;3.95;2.45;;;23.00;99.90;;;;;;5098392;27;20230;-73
2022/08/01 07:59:12;;;;;;;5.28;2.22;;;23.30;99.90;;;;;;5095993;27;20234;-74
2022/08/01 08:02:11;;;;;;;3.00;2.22;;;23.80;99.90;;;;;;5099234;27;20306;-75
2022/08/01 08:05:01;;;;;;;2.15;1.63;;;24.20;99.90;;;;;;5097956;28;20572;-76
2022/08/01 08:07:49;;;;;;;4.60;2.13;;;24.80;99.90;;;;;;5096048;28;21735;-75
2022/08/01 08:10:38;;;;;;;6.38;1.83;;;25.50;99.90;;;;;;5095023;27;20226;-75
2022/08/01 08:13:28;;;;;;;2.95;1.92;;;25.50;99.90;;;;;;5095690;28;20280;-75
2022/08/01 08:16:17;;;;;;;3.53;2.05;;;26.00;99.90;;;;;;5097894;28;22333;-75
2022/08/01 08:19:06;;;;;;;3.92;1.83;;;26.70;99.90;;;;;;5093752;27;20821;-75
2022/08/01 08:21:56;;;;;;;2.42;1.80;;;28.00;99.90;;;;;;5098833;27;20241;-75
2022/08/01 08:24:45;;;;;;;5.95;5.00;;;28.20;99.90;;;;;;5104368;27;20218;-74
2022/08/01 08:27:34;;;;;;;3.15;2.28;;;27.80;99.90;;;;;;5094961;27;20218;-74
2022/08/01 08:30:25;;;;;;;3.67;1.60;;;28.50;99.90;;;;;;5092401;27;20218;-73
2022/08/01 08:33:13;;;;;;;3.05;1.60;;;29.80;97.90;;;;;;5095311;28;20211;-74
2022/08/01 08:36:02;;;;;;;3.63;1.85;;;31.60;93.60;;;;;;5096207;27;20245;-74
2022/08/01 08:38:52;;;;;;;4.57;1.50;;;32.90;86.50;;;;;;5095210;27;20945;-75
2022/08/01 08:41:41;;;;;;;4.60;1.92;;;34.00;78.30;;;;;;5096585;27;20229;-76
2022/08/01 08:44:29;;;;;;;4.88;1.60;;;34.50;69.30;;;;;;5105781;27;20214;-76
2022/08/01 08:47:19;;;;;;;2.65;1.55;;;36.10;67.40;;;;;;5093395;27;20226;-76
2022/08/01 08:50:09;;;;;;;2.50;1.50;;;36.80;60.50;;;;;;5100173;28;20219;-77
2022/08/01 08:53:00;;;;;;;3.97;1.40;;;37.10;58.40;;;;;;5096070;27;20234;-76
2022/08/01 08:55:58;;;;;;;7.05;1.77;;;37.50;55.20;;;;;;5099066;27;20219;-74
2022/08/01 08:58:46;;;;;;;3.00;1.40;;;37.80;57.10;;;;;;5098885;27;20259;-74
2022/08/01 09:01:35;;;;;;;4.85;1.80;;;37.70;55.80;;;;;;5095159;27;20206;-75
2022/08/01 09:04:24;;;;;;;3.95;1.50;;;37.50;54.50;;;;;;5107863;27;20234;-76
2022/08/01 09:07:14;;;;;;;2.42;1.73;;;37.20;57.40;;;;;;5097120;27;20307;-76
2022/08/01 09:10:03;;;;;;;3.47;1.30;;;37.60;55.90;;;;;;5098772;27;20245;-76
2022/08/01 09:13:10;;;;;;;4.47;1.55;;;35.90;54.50;;;;;;5097730;27;20222;-76
2022/08/01 09:15:59;;;;;;;5.57;1.80;;;34.50;57.90;;;;;;5112913;27;20717;-80
2022/08/01 09:18:48;;;;;;;4.68;1.50;;;34.10;62.50;;;;;;5093743;28;20228;-75
2022/08/01 09:21:56;;;;;;;3.15;1.75;;;34.20;64.60;;;;;;5091185;28;20230;-74
2022/08/01 09:24:59;;;;;;;2.65;1.80;;;36.30;61.20;;;;;;5092281;27;20710;-75
2022/08/01 09:27:47;;;;;;;1.75;1.45;;;38.20;55.80;;;;;;5095066;28;20218;-75
2022/08/01 09:30:39;;;;;;;2.70;1.55;;;37.10;58.50;;;;;;5090581;28;20486;-76
2022/08/01 09:33:48;;;;;;;3.05;1.60;;;39.30;53.20;;;;;;5092357;28;20286;-72
2022/08/01 09:36:52;;;;;;;3.83;1.80;;;40.60;51.70;;;;;;5090187;28;20218;-72
2022/08/01 09:39:57;;;;;;;7.82;1.63;;;40.40;50.00;;;;;;5093042;28;20219;-74
2022/08/01 09:42:51;;;;;;;13.27;4.38;;;40.30;51.30;;;;;;5093059;28;20370;-77
2022/08/01 09:45:41;;;;;;;6.35;2.30;;;40.30;52.40;;;;;;5092931;28;20280;-73
2022/08/01 09:48:36;;;;;;;4.78;2.05;;;33.20;67.20;;;;;;5089005;28;20238;-81
2022/08/01 09:51:30;;;;;;;4.93;2.70;;;32.40;64.60;;;;;;5089604;28;20246;-79
2022/08/01 09:54:39;;;;;;;3.45;2.15;;;32.20;68.00;;;;;;5095978;28;20218;-82
2022/08/01 09:57:29;;;;;;;3.65;2.10;;;32.50;67.40;;;;;;5097997;28;20321;-83
2022/08/01 10:00:19;;;;;;;3.03;2.05;;;33.10;66.60;;;;;;5093143;28;20231;-81
2022/08/01 10:03:29;;;;;;;3.75;2.50;;;33.90;66.20;;;;;;5095236;28;20230;-81
2022/08/01 10:06:21;;;;;;;5.13;2.20;;;34.30;63.60;;;;;;5095110;28;20375;-83
2022/08/01 10:09:13;;;;;;;3.58;2.30;;;34.50;64.70;;;;;;5087735;28;20274;-81
2022/08/01 10:12:04;;;;;;;4.07;2.30;;;35.00;62.40;;;;;;5094871;27;20263;-81
2022/08/01 10:14:55;;;;;;;7.45;3.00;;;35.00;61.30;;;;;;5106750;27;20230;-81
2022/08/01 10:17:53;;;;;;;4.40;2.20;;;34.80;61.30;;;;;;5100788;28;20248;-84
2022/08/01 10:20:47;;;;;;;3.97;2.30;;;34.60;62.10;;;;;;5096420;27;20681;-83
2022/08/01 10:23:37;;;;;;;3.17;2.50;;;34.30;63.40;;;;;;5099890;28;20222;-82
2022/08/01 10:26:30;;;;;;;4.05;3.10;;;34.20;60.70;;;;;;5098857;27;20722;-82
2022/08/01 10:29:20;;;;;;;3.42;2.63;;;34.80;62.30;;;;;;5102771;28;20214;-82
2022/08/01 10:32:29;;;;;;;3.17;2.30;;;35.00;61.30;;;;;;5100736;28;20219;-82
2022/08/01 10:35:19;;;;;;;3.92;2.30;;;35.90;59.70;;;;;;5101035;27;20250;-82
2022/08/01 10:38:29;;;;;;;3.63;2.40;;;36.70;59.10;;;;;;5124944;27;20214;-81
2022/08/01 10:41:20;;;;;;;2.83;2.40;;;36.70;58.60;;;;;;5103268;27;20215;-83
2022/08/01 10:44:10;;;;;;;3.83;2.42;;;36.90;58.90;;;;;;5111991;27;20229;-83
2022/08/01 10:47:04;;;;;;;7.75;2.70;;;36.20;57.50;;;;;;5116566;27;20252;-80
2022/08/01 10:50:00;;;;;;;6.20;2.50;;;;;;;;;;5103246;28;20218;-82
2022/08/01 10:53:09;;;;;;;5.45;2.40;;;35.30;62.20;;;;;;5109162;27;20250;-81
2022/08/01 10:56:09;;;;;;;5.00;2.60;;;34.40;60.90;;;;;;5098245;28;20230;-80
2022/08/01 10:59:03;;;;;;;5.80;2.60;;;33.40;63.10;;;;;;5094713;27;20218;-80
2022/08/01 11:02:00;;;;;;;5.28;2.50;;;32.60;65.10;;;;;;5111093;27;20260;-80
2022/08/01 11:04:56;;;;;;;4.10;2.65;;;35.30;62.40;;;;;;5095201;27;20715;-81
2022/08/01 11:07:49;;;;;;;2.53;1.92;;;36.30;61.50;;;;;;5090645;27;20245;-80
2022/08/01 11:10:39;;;;;;;3.47;2.00;;;36.90;59.20;;;;;;5111411;27;20997;-80
2022/08/01 11:14:06;;;;;;;4.47;2.40;;;35.40;59.40;;;;;;5094016;28;20250;-79
2022/08/01 11:16:57;;;;;;;6.97;2.60;;;34.00;60.00;;;;;;5096305;27;20238;-80
2022/08/01 11:20:05;;;;;;;3.80;2.40;;;32.10;64.60;;;;;;5097583;27;20226;-80
2022/08/01 11:23:27;;;;;;;4.00;2.50;;;33.50;66.20;;;;;;5095401;28;20965;-80
2022/08/01 11:26:17;;;;;;;5.05;2.30;;;36.20;62.80;;;;;;5096219;27;20214;-79
2022/08/01 11:29:19;;;;;;;3.78;2.30;;;36.90;59.80;;;;;;5092261;27;20282;-80
2022/08/01 11:32:28;;;;;;;2.75;1.92;;;34.40;59.10;;;;;;5097128;27;20218;-81
2022/08/01 11:35:17;;;;;;;6.10;2.60;;;35.20;59.40;;;;;;5098227;27;20921;-80
2022/08/01 11:38:24;;;;;;;2.67;2.20;;;36.80;59.50;;;;;;5117272;27;20218;-77
2022/08/01 11:41:15;;;;;;;2.40;1.67;;;38.80;58.10;;;;;;5110800;27;20278;-79
2022/08/01 11:44:06;;;;;;;2.72;1.77;;;39.60;53.50;;;;;;5085094;28;20304;-79
2022/08/01 11:47:00;;;;;;;8.23;3.63;;;41.10;51.30;;;;;;5103755;27;20222;-79
2022/08/01 11:49:54;;;;;;;5.53;1.90;;;42.10;50.70;;;;;;5096163;27;20586;-79
2022/08/01 11:52:45;;;;;;;7.50;2.10;;;42.00;49.40;;;;;;5097525;27;20231;-78
2022/08/01 11:55:35;;;;;;;6.78;2.00;;;42.10;48.70;;;;;;5103475;28;20226;-79
2022/08/01 11:58:25;;;;;;;3.78;2.13;;;41.50;48.20;;;;;;5109227;27;20237;-79
2022/08/01 12:01:19;;;;;;;4.55;2.03;;;42.20;48.70;;;;;;5097593;27;20214;-79
2022/08/01 12:04:10;;;;;;;3.90;2.30;;;42.80;48.50;;;;;;5096180;27;20221;-79
2022/08/01 12:07:13;;;;;;;4.63;1.80;;;43.30;47.70;;;;;;5094012;28;20381;-79
2022/08/01 12:10:05;;;;;;;4.70;1.95;;;43.30;46.60;;;;;;5093987;28;20221;-80
2022/08/01 12:12:55;;;;;;;3.00;1.92;;;40.60;48.80;;;;;;5094550;27;20219;-79
2022/08/01 12:15:45;;;;;;;2.22;1.90;;;38.60;50.00;;;;;;5097695;27;20217;-79
2022/08/01 12:18:39;;;;;;;3.83;2.10;;;42.20;48.80;;;;;;5098541;27;20313;-78
2022/08/01 12:21:29;;;;;;;4.35;2.10;;;42.70;46.00;;;;;;5099629;28;20218;-79
2022/08/01 12:24:23;;;;;;;4.82;2.35;;;42.20;46.60;;;;;;5096805;27;20210;-80
2022/08/01 12:27:12;;;;;;;5.30;2.60;;;42.50;47.00;;;;;;5100172;27;20566;-79
2022/08/01 12:30:01;;;;;;;5.05;2.40;;;42.70;46.20;;;;;;5093795;27;20224;-79
2022/08/01 12:32:51;;;;;;;4.25;2.40;;;43.40;46.00;;;;;;5100140;27;20779;-79
2022/08/01 12:35:41;;;;;;;3.85;2.53;;;43.00;46.00;;;;;;5091869;28;20222;-79
2022/08/01 12:38:32;;;;;;;3.28;2.33;;;42.90;47.00;;;;;;5097761;27;20747;-79
2022/08/01 12:41:21;;;;;;;2.65;2.40;;;43.00;46.50;;;;;;5124940;27;20737;-80
2022/08/01 12:44:18;;;;;;;5.28;4.60;;;40.20;47.60;;;;;;5096648;28;20206;-79
2022/08/01 12:47:08;;;;;;;4.28;2.90;;;36.60;53.70;;;;;;5089715;28;20225;-79
2022/08/01 12:49:56;;;;;;;3.35;2.70;;;34.50;55.40;;;;;;5094286;27;20941;-78
2022/08/01 12:52:45;;;;;;;5.15;2.75;;;32.20;59.90;;;;;;5097635;27;20574;-79
2022/08/01 12:55:45;;;;;;;3.03;2.40;;;32.20;60.50;;;;;;5122632;27;20741;-78
2022/08/01 12:58:47;;;;;;;2.58;2.30;;;31.90;59.90;;;;;;5092918;28;20247;-78
2022/08/01 13:01:35;;;;;;;4.15;2.60;;;30.90;61.10;;;;;;5093823;28;20218;-79
2022/08/01 13:04:24;;;;;;;4.10;2.85;;;30.40;64.50;;;;;;5099119;27;20223;-78
2022/08/01 13:07:13;;;;;;;4.60;2.90;;;30.20;65.10;;;;;;5099470;27;20743;-78
2022/08/01 13:10:02;;;;;;;3.75;3.00;;;29.60;65.10;;;;;;5091611;27;20238;-77
2022/08/01 13:12:54;;;;;;;5.78;3.00;;;29.30;68.50;;;;;;5098678;27;20230;-79
2022/08/01 13:15:45;;;;;;;3.40;3.10;;;29.10;71.00;;;;;;5098287;27;20242;-79
2022/08/01 13:18:35;;;;;;;5.45;3.67;;;29.00;71.30;;;;;;5097563;27;20937;-79
2022/08/01 13:21:25;;;;;;;4.72;3.13;;;29.00;69.10;;;;;;5098000;28;20219;-79
2022/08/01 13:24:14;;;;;;;5.13;3.60;;;28.60;71.10;;;;;;5101513;27;20741;-78
2022/08/01 13:27:05;;;;;;;6.00;3.42;;;28.60;72.40;;;;;;5095058;28;20719;-79
2022/08/01 13:29:55;;;;;;;4.35;3.95;;;28.70;74.00;;;;;;5096030;28;20362;-79
2022/08/01 13:32:44;;;;;;;11.43;3.83;;;28.50;74.30;;;;;;5097654;27;20736;-78
2022/08/01 13:35:33;;;;;;;7.20;4.03;;;28.20;74.60;;;;;;5098040;28;20603;-79
2022/08/01 13:39:40;;;;;;;5.00;3.55;;;28.10;74.90;;;;;;5094611;28;20351;-79
2022/08/01 13:41:35;;;;;;;5.93;4.07;;;28.20;75.00;;;;;;5111367;27;20222;-78
2022/08/01 13:44:23;;;;;;;4.95;3.63;;;28.20;75.30;;;;;;5101051;28;20226;-78
2022/08/01 13:47:13;;;;;;;4.32;3.90;;;27.70;76.60;;;;;;5099852;27;20283;-79
2022/08/01 13:50:06;;;;;;;5.10;4.10;;;27.70;77.00;;;;;;5098853;28;20256;-79
2022/08/01 13:52:54;;;;;;;4.80;3.65;;;27.70;77.50;;;;;;5123697;27;20213;-80
2022/08/01 13:55:43;;;;;;;5.00;4.53;;;27.60;77.00;;;;;;5095036;27;20226;-79
2022/08/01 13:58:32;;;;;;;4.80;4.40;;;27.60;78.20;;;;;;5103318;27;20349;-79
2022/08/01 14:01:21;;;;;;;5.55;4.40;;;27.50;79.10;;;;;;5095077;28;20226;-79
2022/08/01 14:04:11;;;;;;;5.82;3.97;;;27.40;79.20;;;;;;5101616;27;20289;-79
2022/08/01 14:07:00;;;;;;;4.32;3.97;;;27.40;78.20;;;;;;5105596;27;20367;-79
2022/08/01 14:09:57;;;;;;;5.18;4.35;;;27.30;78.70;;;;;;5108763;27;20730;-78
2022/08/01 14:13:05;;;;;;;5.25;4.20;;;27.50;83.30;;;;;;5103156;28;20298;-78
2022/08/01 14:15:59;;;;;;;5.90;4.00;;;27.40;81.50;;;;;;5100036;27;20252;-79
2022/08/01 14:18:48;;;;;;;5.57;3.60;;;27.30;82.00;;;;;;5102297;27;20225;-78
2022/08/01 14:21:38;;;;;;;6.03;3.53;;;27.30;79.70;;;;;;5102703;28;20207;-79
2022/08/01 14:24:27;;;;;;;4.63;3.75;;;27.10;81.20;;;;;;5101040;28;20218;-78
2022/08/01 14:27:15;;;;;;;3.70;3.33;;;27.10;83.80;;;;;;5101424;27;20311;-76
2022/08/01 14:30:05;;;;;;;5.53;3.70;;;27.10;86.50;;;;;;5096968;28;20295;-78
2022/08/01 14:32:54;;;;;;;3.75;2.97;;;27.00;85.30;;;;;;5098244;27;20225;-78
2022/08/01 14:35:42;;;;;;;3.25;2.92;;;26.80;80.40;;;;;;5102437;27;20234;-79
2022/08/01 14:38:53;;;;;;;5.53;3.00;;;26.90;83.10;;;;;;5099955;27;20222;-78
2022/08/01 14:41:47;;;;;;;4.35;3.30;;;26.70;81.10;;;;;;5102853;27;20627;-78
2022/08/01 14:44:36;;;;;;;3.28;3.00;;;26.80;82.10;;;;;;5104455;27;20225;-78
2022/08/01 14:47:33;;;;;;;3.55;3.15;;;26.90;81.90;;;;;;5113923;27;20222;-78
2022/08/01 14:50:23;;;;;;;4.90;3.00;;;26.80;83.10;;;;;;5096561;28;20236;-79
2022/08/01 14:53:12;;;;;;;3.15;2.85;;;26.80;83.60;;;;;;5098636;27;20745;-78
2022/08/01 14:56:02;;;;;;;3.40;2.97;;;26.70;83.80;;;;;;5103012;27;20226;-78
2022/08/01 14:58:51;;;;;;;5.28;3.20;;;26.70;86.70;;;;;;5100339;28;20760;-79